Time;durP1;ratioP1;P1;durP2;ratioP2;P2;SDS_P1;SDS_P2;PMS_P1;PMS_P2;Temp;Humidity;BMP_temperature;BMP_pressure;BME280_temperature;BME280_humidity;BME280_pressure;Samples;Min_cycle;Max_cycle;Signal;HPM_P1;HPM_P2
2021/09/02 00:00:51;;;;;;;19.10;8.48;;;13.60;99.90;;;;;;4885796;29;20028;-93
2021/09/02 00:03:19;;;;;;;16.70;8.00;;;13.50;99.90;;;;;;4885232;29;20044;-92
2021/09/02 00:05:45;;;;;;;17.70;8.25;;;13.60;99.90;;;;;;4885268;29;20029;-94
2021/09/02 00:08:11;;;;;;;18.70;9.00;;;13.50;99.90;;;;;;4870199;29;20040;-91
2021/09/02 00:10:39;;;;;;;19.02;9.00;;;13.50;99.90;;;;;;4885555;29;20049;-92
2021/09/02 00:13:05;;;;;;;16.40;8.25;;;13.50;99.90;;;;;;4886165;29;20187;-92
2021/09/02 00:15:31;;;;;;;18.77;8.85;;;13.50;99.90;;;;;;4884037;29;20094;-93
2021/09/02 00:17:57;;;;;;;17.63;8.95;;;13.50;99.90;;;;;;4869238;29;20471;-93
2021/09/02 00:20:28;;;;;;;17.63;8.80;;;13.50;99.90;;;;;;4885705;29;20040;-95
2021/09/02 00:22:54;;;;;;;21.52;8.15;;;13.50;99.90;;;;;;4868700;29;20041;-93
2021/09/02 00:25:23;;;;;;;21.00;9.40;;;13.50;99.90;;;;;;4884817;29;20410;-92
2021/09/02 00:27:52;;;;;;;19.70;10.20;;;13.50;99.90;;;;;;4886987;29;20123;-92
2021/09/02 00:30:18;;;;;;;20.17;10.25;;;13.50;99.90;;;;;;4869792;29;20028;-94
2021/09/02 00:32:43;;;;;;;27.25;10.68;;;13.50;99.90;;;;;;4868577;29;20025;-93
2021/09/02 00:35:10;;;;;;;17.75;10.05;;;13.50;99.90;;;;;;4868596;29;20032;-93
2021/09/02 00:37:37;;;;;;;21.92;11.82;;;13.50;99.90;;;;;;4869307;29;20041;-92
2021/09/02 00:40:03;;;;;;;20.85;11.18;;;13.40;99.90;;;;;;4869114;29;20025;-92
2021/09/02 00:42:29;;;;;;;23.45;10.10;;;13.50;99.90;;;;;;4868553;29;20491;-91
2021/09/02 00:45:13;;;;;;;23.65;11.88;;;13.40;99.90;;;;;;4868790;29;20028;-92
2021/09/02 00:47:59;;;;;;;18.40;10.70;;;13.40;99.90;;;;;;4868363;29;20029;-93
2021/09/02 00:50:29;;;;;;;23.58;11.43;;;13.40;99.90;;;;;;4866775;29;20040;-92
2021/09/02 00:53:03;;;;;;;23.48;10.80;;;13.50;99.90;;;;;;4867560;29;20017;-94
2021/09/02 00:55:30;;;;;;;22.13;11.80;;;13.40;99.90;;;;;;4882243;29;20132;-93
2021/09/02 00:57:56;;;;;;;25.02;12.00;;;13.40;99.90;;;;;;4866999;29;20029;-93
2021/09/02 01:00:22;;;;;;;25.10;13.38;;;13.40;99.90;;;;;;4865827;29;20040;-92
2021/09/02 01:02:47;;;;;;;23.60;11.55;;;13.40;99.90;;;;;;4866085;29;20131;-92
2021/09/02 01:05:18;;;;;;;34.90;11.85;;;13.40;99.90;;;;;;4865958;29;20073;-92
2021/09/02 01:07:44;;;;;;;26.00;12.52;;;13.40;99.90;;;;;;4865934;29;20475;-91
2021/09/02 01:10:10;;;;;;;25.85;11.82;;;13.40;99.90;;;;;;4882149;29;20045;-93
2021/09/02 01:12:39;;;;;;;26.15;12.05;;;13.40;99.90;;;;;;4882699;29;20546;-93
2021/09/02 01:15:08;;;;;;;23.42;10.85;;;13.40;99.90;;;;;;4865894;29;20037;-92
2021/09/02 01:17:34;;;;;;;30.27;12.88;;;13.40;99.90;;;;;;4881617;29;20040;-92
2021/09/02 01:20:07;;;;;;;23.48;11.65;;;13.40;99.90;;;;;;4882746;29;20061;-93
2021/09/02 01:22:32;;;;;;;25.23;12.40;;;13.40;99.90;;;;;;4868596;29;20092;-93
2021/09/02 01:25:00;;;;;;;28.88;11.50;;;13.40;99.90;;;;;;4866644;29;20128;-93
2021/09/02 01:27:27;;;;;;;30.20;12.60;;;13.30;99.90;;;;;;4866117;29;20032;-93
2021/09/02 01:29:58;;;;;;;25.30;11.65;;;13.40;99.90;;;;;;4866338;29;20040;-94
2021/09/02 01:32:33;;;;;;;22.55;11.88;;;13.30;99.90;;;;;;4866613;29;20029;-92
2021/09/02 01:34:59;;;;;;;21.05;11.25;;;13.30;99.90;;;;;;4883304;29;20029;-92
2021/09/02 01:37:35;;;;;;;26.27;11.63;;;13.30;99.90;;;;;;4867459;29;20029;-93
2021/09/02 01:40:01;;;;;;;28.35;12.43;;;13.30;99.90;;;;;;4882754;29;20551;-92
2021/09/02 01:42:27;;;;;;;24.13;12.07;;;13.30;99.90;;;;;;4866893;29;20057;-91
2021/09/02 01:44:52;;;;;;;26.05;11.35;;;13.30;99.90;;;;;;4883298;29;20033;-90
2021/09/02 01:47:25;;;;;;;26.73;12.20;;;13.30;99.90;;;;;;4885456;29;20029;-92
2021/09/02 01:49:51;;;;;;;24.80;11.10;;;13.30;99.90;;;;;;4866697;29;20029;-93
2021/09/02 01:52:19;;;;;;;29.20;12.57;;;13.30;99.90;;;;;;4864840;29;20040;-93
2021/09/02 01:54:48;;;;;;;22.20;10.82;;;13.30;99.90;;;;;;4881271;29;20031;-93
2021/09/02 01:57:16;;;;;;;27.33;12.35;;;13.30;99.90;;;;;;4864714;29;20499;-93
2021/09/02 01:59:42;;;;;;;25.85;11.73;;;13.30;99.90;;;;;;4865147;29;20057;-94
2021/09/02 02:02:08;;;;;;;27.17;12.27;;;13.30;99.90;;;;;;4865179;29;20483;-92
2021/09/02 02:04:34;;;;;;;29.92;11.95;;;13.30;99.90;;;;;;4865121;29;20036;-92
2021/09/02 02:07:03;;;;;;;24.13;11.27;;;13.30;99.90;;;;;;4866413;29;20029;-91
2021/09/02 02:09:29;;;;;;;20.92;11.13;;;13.30;99.90;;;;;;4872387;29;20029;-92
2021/09/02 02:11:55;;;;;;;23.00;12.43;;;13.30;99.90;;;;;;4871588;29;20058;-93
2021/09/02 02:14:21;;;;;;;26.30;12.30;;;13.30;99.90;;;;;;4869131;29;20069;-92
2021/09/02 02:16:47;;;;;;;29.80;12.18;;;13.30;99.90;;;;;;4884241;29;20123;-91
2021/09/02 02:19:13;;;;;;;30.42;13.95;;;13.30;99.90;;;;;;4864832;29;20048;-92
2021/09/02 02:21:39;;;;;;;24.85;12.18;;;13.30;99.90;;;;;;4864877;29;20029;-92
2021/09/02 02:24:04;;;;;;;32.10;14.50;;;13.30;99.90;;;;;;4864974;29;20037;-91
2021/09/02 02:26:31;;;;;;;27.95;12.43;;;13.30;99.90;;;;;;4864467;29;20033;-91
2021/09/02 02:29:03;;;;;;;29.83;12.35;;;13.30;99.90;;;;;;4864915;29;20184;-92
2021/09/02 02:31:28;;;;;;;27.20;13.40;;;13.30;99.90;;;;;;4864428;29;20029;-91
2021/09/02 02:33:54;;;;;;;26.25;12.38;;;13.20;99.90;;;;;;4864173;29;20036;-93
2021/09/02 02:36:20;;;;;;;28.90;12.68;;;13.30;99.90;;;;;;4864404;29;20043;-92
2021/09/02 02:38:46;;;;;;;26.45;11.88;;;13.30;99.90;;;;;;4867127;29;20369;-93
2021/09/02 02:41:11;;;;;;;30.33;13.75;;;13.30;99.90;;;;;;4869647;29;20438;-92
2021/09/02 02:43:37;;;;;;;32.03;14.73;;;13.30;99.90;;;;;;4869997;29;20028;-91
2021/09/02 02:46:03;;;;;;;28.25;14.45;;;13.30;99.90;;;;;;4870172;29;20506;-93
2021/09/02 02:48:28;;;;;;;31.38;13.20;;;13.30;99.90;;;;;;4870090;29;20506;-92
2021/09/02 02:50:54;;;;;;;29.13;13.20;;;13.30;99.90;;;;;;4869494;29;20535;-92
2021/09/02 02:53:20;;;;;;;30.90;14.35;;;13.30;99.90;;;;;;4870187;29;20033;-92
2021/09/02 02:55:45;;;;;;;30.15;14.00;;;13.30;99.90;;;;;;4869984;29;20033;-93
2021/09/02 02:58:11;;;;;;;31.17;13.20;;;13.30;99.90;;;;;;4869906;29;20601;-92
2021/09/02 03:00:38;;;;;;;35.38;13.32;;;13.30;99.90;;;;;;4869563;29;20029;-91
2021/09/02 03:03:04;;;;;;;27.70;12.13;;;13.30;99.90;;;;;;4869633;29;20040;-92
2021/09/02 03:05:29;;;;;;;25.67;13.23;;;13.30;99.90;;;;;;4871128;29;20044;-92
2021/09/02 03:07:55;;;;;;;22.17;11.50;;;13.30;99.90;;;;;;4871756;29;20159;-92
2021/09/02 03:10:21;;;;;;;21.58;11.10;;;13.30;99.90;;;;;;4870473;29;20419;-92
2021/09/02 03:12:46;;;;;;;26.77;11.70;;;13.20;99.90;;;;;;4870396;29;20029;-92
2021/09/02 03:15:12;;;;;;;24.98;11.00;;;13.20;99.90;;;;;;4871502;29;20120;-92
2021/09/02 03:17:38;;;;;;;21.15;9.70;;;13.20;99.90;;;;;;4869685;29;20029;-92
2021/09/02 03:20:05;;;;;;;19.70;9.45;;;13.20;99.90;;;;;;4885312;29;20028;-92
2021/09/02 03:22:31;;;;;;;20.17;8.98;;;13.20;99.90;;;;;;4884738;29;20108;-92
2021/09/02 03:24:57;;;;;;;19.10;8.57;;;13.20;99.90;;;;;;4886283;29;20021;-92
2021/09/02 03:27:23;;;;;;;21.63;10.27;;;13.20;99.90;;;;;;4885168;29;20035;-91
2021/09/02 03:29:49;;;;;;;17.35;9.07;;;13.20;99.90;;;;;;4886477;29;20025;-92
2021/09/02 03:32:14;;;;;;;16.83;8.20;;;13.10;99.90;;;;;;4886274;29;20085;-91
2021/09/02 03:34:40;;;;;;;14.38;7.35;;;13.10;99.90;;;;;;4886086;29;20065;-92
2021/09/02 03:37:06;;;;;;;17.30;7.60;;;13.10;99.90;;;;;;4884619;29;20067;-92
2021/09/02 03:39:32;;;;;;;18.83;7.88;;;13.10;99.90;;;;;;4884899;29;20025;-92
2021/09/02 03:41:58;;;;;;;14.15;7.65;;;13.10;99.90;;;;;;4885561;29;20514;-92
2021/09/02 03:44:23;;;;;;;13.75;7.28;;;13.00;99.90;;;;;;4869475;29;20037;-92
2021/09/02 03:46:49;;;;;;;17.70;8.13;;;13.00;99.90;;;;;;4869618;29;20029;-91
2021/09/02 03:49:15;;;;;;;16.05;7.85;;;13.00;99.90;;;;;;4884558;29;20032;-92
2021/09/02 03:51:43;;;;;;;17.65;8.10;;;12.90;99.90;;;;;;4882264;29;20037;-92
2021/09/02 03:54:16;;;;;;;18.10;8.43;;;12.90;99.90;;;;;;4881945;29;20435;-92
2021/09/02 03:56:50;;;;;;;13.93;7.20;;;12.90;99.90;;;;;;4881998;29;20041;-91
2021/09/02 03:59:16;;;;;;;15.02;7.30;;;12.90;99.90;;;;;;4881876;29;20029;-92
2021/09/02 04:01:42;;;;;;;16.05;7.22;;;13.00;99.90;;;;;;4882935;29;20037;-92
2021/09/02 04:04:10;;;;;;;13.52;6.85;;;12.90;99.90;;;;;;4881393;29;20037;-92
2021/09/02 04:06:41;;;;;;;14.05;7.22;;;12.90;99.90;;;;;;4882049;29;20040;-91
2021/09/02 04:09:18;;;;;;;12.38;6.63;;;12.90;99.90;;;;;;4866155;29;20065;-91
2021/09/02 04:11:46;;;;;;;13.18;6.60;;;12.90;99.90;;;;;;4882816;29;20037;-91
2021/09/02 04:14:12;;;;;;;14.13;6.85;;;12.90;99.90;;;;;;4882586;29;20068;-92
2021/09/02 04:16:37;;;;;;;13.18;7.50;;;12.90;99.90;;;;;;4882013;29;20028;-92
2021/09/02 04:19:05;;;;;;;16.70;7.38;;;12.90;99.90;;;;;;4881409;29;20085;-92
2021/09/02 04:21:30;;;;;;;12.73;7.18;;;12.80;99.90;;;;;;4881106;29;20044;-93
2021/09/02 04:23:56;;;;;;;13.05;6.80;;;12.90;99.90;;;;;;4882730;29;20447;-92
2021/09/02 04:26:22;;;;;;;17.20;6.68;;;12.80;99.90;;;;;;4883069;29;20025;-91
2021/09/02 04:28:47;;;;;;;12.68;6.75;;;12.80;99.90;;;;;;4885770;29;20483;-92
2021/09/02 04:31:13;;;;;;;15.68;6.57;;;12.90;99.90;;;;;;4881553;29;20654;-92
2021/09/02 04:33:39;;;;;;;12.10;6.13;;;12.90;99.90;;;;;;4881213;29;20505;-93
2021/09/02 04:36:05;;;;;;;11.43;5.22;;;12.90;99.90;;;;;;4881221;29;20033;-92
2021/09/02 04:38:30;;;;;;;11.23;5.68;;;12.80;99.90;;;;;;4880882;29;20064;-92
2021/09/02 04:40:56;;;;;;;10.55;5.70;;;12.90;99.90;;;;;;4881555;29;20460;-93
2021/09/02 04:43:21;;;;;;;11.65;5.15;;;12.80;99.90;;;;;;4882546;29;20053;-92
2021/09/02 04:45:49;;;;;;;10.23;5.32;;;12.80;99.90;;;;;;4881441;29;20088;-93
2021/09/02 04:48:22;;;;;;;12.23;5.78;;;12.80;99.90;;;;;;4881353;29;20029;-93
2021/09/02 04:50:49;;;;;;;13.10;5.18;;;12.90;99.90;;;;;;4880934;29;20112;-92
2021/09/02 04:53:16;;;;;;;12.27;5.32;;;12.80;99.90;;;;;;4880761;29;20029;-94
2021/09/02 04:55:42;;;;;;;8.35;5.05;;;12.80;99.90;;;;;;4881700;29;20029;-91
2021/09/02 04:58:09;;;;;;;10.90;5.88;;;12.80;99.90;;;;;;4881041;29;20032;-93
2021/09/02 05:00:36;;;;;;;13.15;5.78;;;12.80;99.90;;;;;;4880993;29;20033;-93
2021/09/02 05:03:03;;;;;;;13.25;6.55;;;12.80;99.90;;;;;;4881573;29;20132;-92
2021/09/02 05:05:30;;;;;;;13.63;6.07;;;12.80;99.90;;;;;;4866049;29;20033;-93
2021/09/02 05:07:55;;;;;;;10.18;5.53;;;12.70;99.90;;;;;;4888482;29;20547;-93
2021/09/02 05:10:22;;;;;;;12.07;6.57;;;12.80;99.90;;;;;;4889946;29;20021;-95
2021/09/02 05:12:47;;;;;;;9.93;5.80;;;12.80;99.90;;;;;;4887094;29;20069;-93
2021/09/02 05:15:13;;;;;;;9.07;6.10;;;12.70;99.90;;;;;;4886011;29;20033;-94
2021/09/02 05:17:42;;;;;;;14.60;6.55;;;12.70;99.90;;;;;;4882115;29;20033;-92
2021/09/02 05:20:12;;;;;;;14.98;6.45;;;12.70;99.90;;;;;;4881673;29;20483;-92
2021/09/02 05:22:38;;;;;;;12.35;6.22;;;12.70;99.90;;;;;;4881154;29;20037;-93
2021/09/02 05:25:04;;;;;;;13.70;6.55;;;12.70;99.90;;;;;;4865719;29;20483;-94
2021/09/02 05:27:30;;;;;;;10.98;6.00;;;12.70;99.90;;;;;;4882825;29;20053;-93
2021/09/02 05:29:55;;;;;;;13.80;5.65;;;12.70;99.90;;;;;;4866287;29;20025;-96
2021/09/02 05:32:21;;;;;;;16.80;6.47;;;12.70;99.90;;;;;;4881059;29;20040;-94
2021/09/02 05:34:47;;;;;;;13.60;6.88;;;12.60;99.90;;;;;;4865384;29;20164;-94
2021/09/02 05:37:12;;;;;;;14.27;6.13;;;12.60;99.90;;;;;;4865762;29;20040;-96
2021/09/02 05:39:38;;;;;;;10.65;5.70;;;12.70;99.90;;;;;;4865873;29;20041;-93
2021/09/02 05:42:05;;;;;;;19.10;7.20;;;12.70;99.90;;;;;;4881875;29;20049;-95
2021/09/02 05:44:34;;;;;;;18.42;7.78;;;12.70;99.90;;;;;;4865913;29;20025;-94
2021/09/02 05:47:00;;;;;;;12.55;7.10;;;12.70;99.90;;;;;;4884200;29;20036;-95
2021/09/02 05:49:26;;;;;;;11.80;6.95;;;12.60;99.90;;;;;;4890684;29;20041;-94
2021/09/02 05:51:51;;;;;;;13.95;6.55;;;12.60;99.90;;;;;;4868354;29;20029;-93
2021/09/02 05:54:17;;;;;;;13.02;5.70;;;12.70;99.90;;;;;;4882650;29;20040;-94
2021/09/02 05:56:43;;;;;;;15.23;7.00;;;12.70;99.90;;;;;;4882565;29;20029;-94
2021/09/02 05:59:08;;;;;;;11.50;6.60;;;12.70;99.90;;;;;;4865918;29;20036;-95
2021/09/02 06:01:34;;;;;;;13.80;7.38;;;12.70;99.90;;;;;;4881462;29;20037;-94
2021/09/02 06:04:00;;;;;;;16.55;6.90;;;12.70;99.90;;;;;;4880653;29;20037;-93
2021/09/02 06:06:26;;;;;;;16.85;6.95;;;12.70;99.90;;;;;;4880667;29;20036;-92
2021/09/02 06:08:52;;;;;;;12.85;6.70;;;12.80;99.90;;;;;;4882140;29;20036;-92
2021/09/02 06:11:18;;;;;;;13.48;7.07;;;12.70;99.90;;;;;;4882379;29;20391;-93
2021/09/02 06:13:44;;;;;;;15.25;5.93;;;12.80;99.90;;;;;;4878995;29;20077;-96
2021/09/02 06:16:10;;;;;;;17.27;6.97;;;12.80;99.90;;;;;;4870908;29;20550;-92
2021/09/02 06:18:36;;;;;;;15.75;7.22;;;12.80;99.90;;;;;;4870585;29;20068;-94
2021/09/02 06:21:02;;;;;;;13.95;7.30;;;12.80;99.90;;;;;;4874075;29;20049;-93
2021/09/02 06:23:28;;;;;;;11.90;6.40;;;12.80;99.90;;;;;;4874812;29;20041;-94
2021/09/02 06:25:53;;;;;;;17.73;6.93;;;12.80;99.90;;;;;;4857404;29;20415;-93
2021/09/02 06:28:19;;;;;;;17.48;7.47;;;12.80;99.90;;;;;;4874169;29;20033;-95
2021/09/02 06:30:45;;;;;;;17.13;6.80;;;12.80;99.90;;;;;;4868800;29;20037;-95
2021/09/02 06:33:11;;;;;;;16.20;7.07;;;12.90;99.90;;;;;;4853721;29;20465;-95
2021/09/02 06:35:37;;;;;;;15.52;7.28;;;12.80;99.90;;;;;;4858321;29;20044;-94
2021/09/02 06:38:06;;;;;;;16.85;7.78;;;12.90;99.90;;;;;;4854336;29;20030;-94
2021/09/02 06:40:33;;;;;;;20.77;7.95;;;12.90;99.90;;;;;;4870445;29;20028;-94
2021/09/02 06:43:01;;;;;;;19.90;7.75;;;12.90;99.90;;;;;;4873224;29;20049;-94
2021/09/02 06:45:27;;;;;;;17.60;7.32;;;13.00;99.90;;;;;;4873599;29;20033;-96
2021/09/02 06:47:53;;;;;;;18.52;7.82;;;12.90;99.90;;;;;;4879495;29;20428;-95
2021/09/02 06:50:19;;;;;;;16.95;7.10;;;13.00;99.90;;;;;;4878836;29;20112;-94
2021/09/02 06:52:47;;;;;;;15.82;7.18;;;13.00;99.90;;;;;;4881005;29;20025;-92
2021/09/02 06:55:13;;;;;;;17.40;8.38;;;13.00;99.90;;;;;;4882507;29;20029;-93
2021/09/02 06:57:39;;;;;;;18.45;7.40;;;13.00;99.90;;;;;;4883637;29;20041;-96
2021/09/02 07:00:07;;;;;;;14.68;7.07;;;13.10;99.90;;;;;;4873416;29;20033;-95
2021/09/02 07:02:34;;;;;;;18.55;8.90;;;13.10;99.90;;;;;;4883970;29;20502;-94
2021/09/02 07:05:00;;;;;;;17.52;8.43;;;13.10;99.90;;;;;;4881106;29;20162;-94
2021/09/02 07:07:29;;;;;;;19.60;7.93;;;13.10;99.90;;;;;;4884372;29;20365;-92
2021/09/02 07:09:54;;;;;;;23.02;9.10;;;13.10;99.90;;;;;;4878785;29;20025;-94
2021/09/02 07:12:20;;;;;;;17.83;8.63;;;13.20;99.90;;;;;;4871693;29;20415;-93
2021/09/02 07:14:46;;;;;;;18.08;8.07;;;13.20;99.90;;;;;;4889124;29;20052;-94
2021/09/02 07:17:12;;;;;;;25.35;9.55;;;13.20;99.90;;;;;;4870513;29;20115;-91
2021/09/02 07:19:37;;;;;;;25.60;10.48;;;13.20;99.90;;;;;;4888487;29;20427;-91
2021/09/02 07:22:03;;;;;;;18.52;8.98;;;13.30;99.90;;;;;;4893471;29;20036;-91
2021/09/02 07:24:29;;;;;;;26.02;8.82;;;13.20;99.90;;;;;;4881026;29;20033;-94
2021/09/02 07:26:55;;;;;;;23.58;7.75;;;13.30;99.90;;;;;;4888816;29;20041;-93
2021/09/02 07:29:21;;;;;;;23.50;8.30;;;13.40;99.90;;;;;;4904857;29;20013;-94
2021/09/02 07:31:46;;;;;;;18.50;8.35;;;13.40;99.90;;;;;;4887826;29;20053;-92
2021/09/02 07:34:12;;;;;;;24.50;9.32;;;13.40;99.90;;;;;;4901890;29;20017;-92
2021/09/02 07:36:38;;;;;;;23.73;8.35;;;13.50;99.90;;;;;;4896599;29;20112;-93
2021/09/02 07:39:05;;;;;;;16.95;8.65;;;13.50;99.90;;;;;;4892291;29;20112;-93
2021/09/02 07:41:31;;;;;;;18.65;8.40;;;13.50;99.90;;;;;;4891757;29;20048;-94
2021/09/02 07:43:56;;;;;;;24.20;8.60;;;13.60;99.90;;;;;;4892594;29;20020;-92
2021/09/02 07:46:22;;;;;;;20.23;7.93;;;13.70;99.90;;;;;;4888232;29;20021;-94
2021/09/02 07:48:48;;;;;;;24.10;8.85;;;13.70;99.90;;;;;;4888397;29;20089;-92
2021/09/02 07:51:14;;;;;;;17.17;8.25;;;13.80;99.90;;;;;;4876150;29;20021;-91
2021/09/02 07:53:41;;;;;;;16.60;8.52;;;13.80;99.90;;;;;;4868401;29;20060;-93
2021/09/02 07:56:07;;;;;;;18.65;8.32;;;13.80;99.90;;;;;;5031894;23;20051;-94
2021/09/02 07:58:33;;;;;;;20.80;8.63;;;13.90;99.90;;;;;;4930096;29;20107;-93
2021/09/02 08:00:58;;;;;;;22.65;8.77;;;13.90;99.90;;;;;;4917143;29;20024;-93
2021/09/02 08:03:24;;;;;;;18.60;8.43;;;13.90;99.90;;;;;;4950674;29;20099;-94
2021/09/02 08:05:50;;;;;;;22.90;8.23;;;14.00;99.90;;;;;;4957118;29;20024;-92
2021/09/02 08:08:18;;;;;;;23.88;8.52;;;14.10;99.90;;;;;;4954078;29;20080;-92
2021/09/02 08:10:45;;;;;;;22.80;8.07;;;14.10;99.90;;;;;;4939311;29;20020;-92
2021/09/02 08:13:11;;;;;;;24.40;8.57;;;14.10;99.90;;;;;;4939767;29;20076;-91
2021/09/02 08:15:39;;;;;;;17.35;8.05;;;14.20;99.90;;;;;;4917852;29;20019;-92
2021/09/02 08:18:05;;;;;;;22.13;9.57;;;14.20;99.90;;;;;;4942586;29;20028;-94
2021/09/02 08:20:32;;;;;;;23.50;8.15;;;14.20;99.90;;;;;;4930088;29;20028;-95
2021/09/02 08:22:58;;;;;;;18.75;8.43;;;14.30;99.90;;;;;;4913358;29;20099;-92
2021/09/02 08:25:26;;;;;;;21.27;8.00;;;14.30;99.90;;;;;;4914780;29;20481;-94
2021/09/02 08:27:52;;;;;;;17.73;8.02;;;14.30;99.90;;;;;;4917955;29;20382;-93
2021/09/02 08:30:24;;;;;;;21.35;8.75;;;14.30;99.90;;;;;;4917814;29;20035;-94
2021/09/02 08:32:51;;;;;;;25.60;8.95;;;14.40;99.90;;;;;;4919037;29;20031;-95
2021/09/02 08:35:22;;;;;;;24.35;8.13;;;14.40;99.90;;;;;;4915740;29;20482;-90
2021/09/02 08:37:49;;;;;;;;;;;14.40;99.90;;;;;;4910955;29;20036;-90
2021/09/02 08:40:20;;;;;;;20.85;7.15;;;14.50;99.90;;;;;;4912401;29;20548;-93
2021/09/02 08:42:47;;;;;;;23.55;8.23;;;14.50;99.90;;;;;;4904448;29;20119;-92
2021/09/02 08:45:14;;;;;;;17.63;7.55;;;14.60;99.90;;;;;;4920217;29;20024;-94
2021/09/02 08:47:44;;;;;;;15.45;6.30;;;14.60;99.90;;;;;;4911434;29;20036;-92
2021/09/02 08:50:10;;;;;;;18.20;7.03;;;14.60;99.90;;;;;;4910577;29;20024;-92
2021/09/02 08:52:36;;;;;;;17.55;6.85;;;14.70;99.90;;;;;;4916760;29;20039;-92
2021/09/02 08:55:04;;;;;;;15.00;6.50;;;14.70;99.90;;;;;;4924358;29;20024;-92
2021/09/02 08:57:30;;;;;;;16.40;7.57;;;14.70;99.90;;;;;;4926637;29;20081;-94
2021/09/02 09:07:06;;;;;;;15.70;6.85;;;14.80;99.90;;;;;;4934619;29;20501;-92
2021/09/02 09:09:35;;;;;;;15.35;5.85;;;14.80;99.90;;;;;;4914664;29;20090;-93
2021/09/02 09:12:01;;;;;;;12.98;5.88;;;14.80;99.90;;;;;;4927348;29;20088;-92
2021/09/02 09:14:28;;;;;;;16.92;6.30;;;14.80;99.90;;;;;;4938364;29;20031;-94
2021/09/02 09:16:56;;;;;;;13.68;6.38;;;14.90;99.90;;;;;;4926946;29;20020;-93
2021/09/02 09:19:52;;;;;;;12.30;5.80;;;14.90;99.90;;;;;;4931338;29;20064;-92
2021/09/02 09:22:20;;;;;;;17.00;7.18;;;14.90;99.90;;;;;;4935777;29;20032;-91
2021/09/02 09:24:49;;;;;;;17.15;5.55;;;15.00;99.90;;;;;;4933530;29;20029;-92
2021/09/02 09:27:32;;;;;;;14.82;5.47;;;15.00;99.90;;;;;;4933875;29;20450;-92
2021/09/02 09:30:06;;;;;;;12.73;6.05;;;15.00;99.90;;;;;;4922047;29;20055;-93
2021/09/02 09:38:16;;;;;;;17.95;7.07;;;15.10;99.90;;;;;;4927125;23;20073;-88
2021/09/02 09:40:45;;;;;;;16.38;6.80;;;15.10;99.90;;;;;;4864475;29;20057;-88
2021/09/02 09:43:22;;;;;;;21.92;7.13;;;15.20;99.90;;;;;;4880899;29;20033;-88
2021/09/02 09:45:52;;;;;;;18.73;7.38;;;15.20;99.90;;;;;;4880111;29;20708;-88
2021/09/02 09:48:29;;;;;;;16.00;7.13;;;15.20;99.90;;;;;;4879163;29;20037;-88
2021/09/02 09:51:15;;;;;;;12.85;6.18;;;15.30;99.90;;;;;;4880308;29;20515;-89
2021/09/02 09:53:52;;;;;;;16.77;6.60;;;15.30;99.90;;;;;;4880237;29;20021;-87
2021/09/02 09:56:20;;;;;;;16.88;6.93;;;15.30;99.90;;;;;;4859385;29;20029;-88
2021/09/02 09:58:47;;;;;;;15.15;6.63;;;15.30;99.90;;;;;;4871837;29;20021;-89
2021/09/02 10:01:13;;;;;;;12.73;6.45;;;15.40;99.90;;;;;;4879940;29;20064;-88
2021/09/02 10:03:40;;;;;;;14.15;6.30;;;15.40;99.90;;;;;;4862996;29;20116;-88
2021/09/02 10:06:08;;;;;;;15.95;6.10;;;15.50;99.90;;;;;;4863133;29;20474;-88
2021/09/02 10:08:37;;;;;;;13.93;5.72;;;15.50;99.90;;;;;;4880295;29;20048;-88
2021/09/02 10:11:06;;;;;;;14.10;5.65;;;15.60;99.90;;;;;;4863599;29;20024;-88
2021/09/02 10:13:32;;;;;;;15.98;5.63;;;15.50;99.90;;;;;;4867343;29;20029;-89
2021/09/02 10:15:58;;;;;;;13.40;5.88;;;15.50;99.90;;;;;;4853331;29;20037;-89
2021/09/02 10:18:26;;;;;;;16.80;5.95;;;15.60;99.90;;;;;;4865783;29;20025;-89
2021/09/02 10:20:52;;;;;;;12.88;5.05;;;15.60;99.90;;;;;;4864855;29;20033;-89
2021/09/02 10:23:24;;;;;;;14.63;5.25;;;15.60;99.90;;;;;;4882458;29;20045;-89
2021/09/02 10:25:49;;;;;;;11.23;5.30;;;15.70;99.90;;;;;;4880997;29;20041;-90
2021/09/02 10:28:29;;;;;;;15.68;5.70;;;15.80;99.90;;;;;;4886389;29;20953;-88
2021/09/02 10:30:58;;;;;;;17.15;6.00;;;15.80;99.90;;;;;;4893799;29;20037;-89
2021/09/02 10:33:43;;;;;;;18.83;6.35;;;15.90;99.90;;;;;;4876510;29;20021;-88
2021/09/02 10:36:15;;;;;;;14.65;6.05;;;16.00;99.90;;;;;;4860968;29;20516;-88
2021/09/02 10:38:45;;;;;;;16.20;6.32;;;16.00;99.90;;;;;;4849658;29;20037;-88
2021/09/02 10:41:12;;;;;;;17.70;6.10;;;16.00;99.90;;;;;;4874797;29;20036;-88
2021/09/02 10:43:53;;;;;;;13.15;6.57;;;16.00;99.90;;;;;;4861491;29;20036;-88
2021/09/02 10:46:32;;;;;;;13.55;6.75;;;16.00;99.90;;;;;;4876531;29;20037;-89
2021/09/02 10:49:26;;;;;;;12.65;6.10;;;16.10;99.90;;;;;;4850325;29;20117;-88
2021/09/02 10:52:04;;;;;;;13.90;6.18;;;16.10;99.90;;;;;;4858541;29;20057;-89
2021/09/02 10:54:39;;;;;;;11.70;6.18;;;16.20;99.90;;;;;;4859420;29;20740;-88
2021/09/02 10:57:07;;;;;;;20.52;7.35;;;16.20;99.90;;;;;;4858407;29;20128;-89
2021/09/02 10:59:38;;;;;;;19.95;8.02;;;16.30;99.90;;;;;;4871880;29;20037;-89
2021/09/02 11:02:27;;;;;;;13.18;7.78;;;16.30;99.90;;;;;;4865184;29;20065;-89
2021/09/02 11:05:04;;;;;;;12.73;6.80;;;16.30;99.90;;;;;;4861732;29;20112;-87
2021/09/02 11:07:46;;;;;;;14.68;8.02;;;16.30;99.90;;;;;;4857817;29;20562;-88
2021/09/02 11:10:16;;;;;;;13.68;7.35;;;16.40;99.90;;;;;;4877053;29;20461;-88
2021/09/02 11:12:42;;;;;;;14.48;7.38;;;16.40;99.90;;;;;;4881137;29;20103;-88
2021/09/02 11:15:09;;;;;;;16.42;6.80;;;16.40;99.90;;;;;;4881364;29;20028;-88
2021/09/02 11:17:35;;;;;;;17.23;6.95;;;16.50;99.90;;;;;;4881157;29;20032;-88
2021/09/02 11:20:01;;;;;;;15.63;6.95;;;16.50;99.90;;;;;;4864515;29;20085;-87
2021/09/02 11:22:26;;;;;;;18.13;7.28;;;16.60;99.90;;;;;;4880846;29;20045;-87
2021/09/02 11:24:53;;;;;;;16.02;6.60;;;16.60;99.90;;;;;;4864808;29;20432;-88
2021/09/02 11:27:45;;;;;;;15.10;6.53;;;16.70;99.90;;;;;;4881261;29;20021;-87
2021/09/02 11:30:20;;;;;;;13.10;6.65;;;16.80;99.90;;;;;;4859762;29;20040;-89
2021/09/02 11:32:52;;;;;;;18.50;6.30;;;16.80;99.90;;;;;;4846533;29;20071;-89
2021/09/02 11:35:22;;;;;;;15.73;7.03;;;16.90;99.90;;;;;;4845787;29;20041;-89
2021/09/02 11:37:47;;;;;;;15.70;7.18;;;16.90;99.90;;;;;;4845893;29;20081;-89
2021/09/02 11:40:25;;;;;;;19.77;8.02;;;16.90;99.90;;;;;;4846439;29;20057;-89
2021/09/02 11:42:52;;;;;;;14.35;6.82;;;16.90;99.90;;;;;;4845887;29;20463;-89
2021/09/02 11:45:19;;;;;;;18.35;8.55;;;16.90;99.90;;;;;;4862565;29;20037;-88
2021/09/02 11:47:48;;;;;;;16.38;7.50;;;17.00;99.90;;;;;;4846145;29;20025;-89
2021/09/02 11:50:13;;;;;;;16.60;7.57;;;17.00;99.90;;;;;;4862314;29;20049;-88
2021/09/02 11:52:41;;;;;;;16.65;7.28;;;17.10;99.90;;;;;;4862498;29;20068;-89
2021/09/02 11:55:13;;;;;;;19.30;8.00;;;17.10;99.90;;;;;;4867593;29;20036;-88
2021/09/02 11:57:38;;;;;;;17.90;7.80;;;17.10;99.90;;;;;;4861440;29;20100;-88
2021/09/02 12:00:05;;;;;;;15.82;8.18;;;17.30;99.90;;;;;;4845248;29;20131;-88
2021/09/02 12:02:30;;;;;;;21.35;8.60;;;17.40;99.90;;;;;;4861986;29;20045;-88
2021/09/02 12:04:56;;;;;;;15.60;7.80;;;17.50;99.90;;;;;;4846674;29;20033;-88
2021/09/02 12:07:22;;;;;;;16.30;7.18;;;17.60;99.90;;;;;;4845944;29;20048;-89
2021/09/02 12:09:50;;;;;;;16.30;7.70;;;17.70;99.90;;;;;;4845561;29;20029;-88
2021/09/02 12:12:32;;;;;;;16.73;7.88;;;17.80;99.90;;;;;;4846008;29;20026;-87
2021/09/02 12:14:58;;;;;;;16.65;8.02;;;17.90;99.90;;;;;;4846085;29;20071;-88
2021/09/02 12:17:36;;;;;;;18.48;8.07;;;17.90;99.90;;;;;;4862489;29;20026;-89
2021/09/02 12:20:07;;;;;;;21.55;8.13;;;18.00;99.90;;;;;;4861526;29;20044;-88
2021/09/02 12:22:40;;;;;;;19.02;8.48;;;18.00;99.90;;;;;;4863189;29;20166;-88
2021/09/02 12:25:15;;;;;;;14.38;7.45;;;18.00;99.90;;;;;;4856953;29;20037;-89
2021/09/02 12:27:53;;;;;;;19.13;7.30;;;18.10;99.90;;;;;;4866953;29;20022;-89
2021/09/02 12:30:44;;;;;;;18.92;7.03;;;18.20;99.90;;;;;;4884104;29;20067;-88
2021/09/02 12:33:15;;;;;;;14.13;6.88;;;18.60;99.90;;;;;;4854111;29;20460;-89
2021/09/02 12:35:43;;;;;;;16.40;8.35;;;18.70;99.80;;;;;;4846802;29;20033;-91
2021/09/02 12:38:29;;;;;;;15.38;7.32;;;18.80;98.90;;;;;;4877210;29;20039;-88
2021/09/02 12:41:12;;;;;;;18.38;6.95;;;18.90;98.20;;;;;;4884838;29;20025;-89
2021/09/02 12:43:38;;;;;;;18.23;7.22;;;19.00;97.90;;;;;;4895189;29;20049;-89
2021/09/02 12:46:04;;;;;;;12.65;7.13;;;19.20;97.70;;;;;;4884364;29;20455;-89
2021/09/02 12:48:29;;;;;;;23.85;7.95;;;19.20;97.50;;;;;;4884217;29;20025;-88
2021/09/02 12:50:56;;;;;;;15.68;7.40;;;19.30;97.30;;;;;;4883864;29;20028;-88
2021/09/02 12:53:31;;;;;;;16.88;6.97;;;19.20;97.30;;;;;;4901145;29;20068;-88